Milwaukee, Wisconsin
Traffic Map
Current Weather Conditions
Milwaukee, Wisconsin
Scattered Clouds
Scattered Clouds
59°
Feels Like: 59°
Wind Chill: 59° Ceiling: Unl
Heat Index: 59° Visibility: 10mi
Dew Point: 53° Wind: 7mph
Humidity: 81% Direction: 270° (W)
Pressure: 30.07in Gusts: 0mph
Raw Report DataKMKE 260552Z 27006KT 10SM SCT110 15/12 A3007 RMK AO2 SLP182 60002 T01500117 10200 20144 402220117 58004
Traffic Incident Summary
Active as of:
Severity:
Category:
InformationThere was an issue retrieving the traffic information for this location. Please try a different location or try again shortly.
Advertisements
Track Severe Weather on mobile